createdAt,value
2022-08-19T00:01:07.377Z,13.20
2022-08-19T00:03:37.242Z,13.15
2022-08-19T00:06:07.422Z,13.85
2022-08-19T00:08:39.890Z,13.77
2022-08-19T00:11:18.571Z,13.18
2022-08-19T00:13:56.333Z,13.02
2022-08-19T00:16:27.351Z,13.52
2022-08-19T00:18:57.840Z,13.68
2022-08-19T00:21:29.035Z,13.50
2022-08-19T00:24:02.195Z,13.38
2022-08-19T00:26:32.343Z,13.32
2022-08-19T00:29:02.263Z,14.38
2022-08-19T00:31:32.430Z,13.45
2022-08-19T00:34:02.377Z,13.50
2022-08-19T00:36:33.953Z,13.57
2022-08-19T00:39:07.335Z,13.10
2022-08-19T00:41:37.966Z,13.48
2022-08-19T00:44:11.427Z,13.18
2022-08-19T00:46:45.434Z,13.25
2022-08-19T00:49:31.227Z,12.75
2022-08-19T00:52:04.611Z,12.73
2022-08-19T00:54:37.608Z,13.10
2022-08-19T00:57:11.233Z,13.02
2022-08-19T01:00:01.210Z,14.60
2022-08-19T01:02:33.242Z,12.88
2022-08-19T01:05:04.845Z,13.27
2022-08-19T01:07:37.642Z,13.25
2022-08-19T01:10:14.613Z,13.85
2022-08-19T01:12:44.500Z,13.18
2022-08-19T01:15:17.750Z,12.63
2022-08-19T01:17:48.509Z,14.10
2022-08-19T01:20:21.277Z,13.55
2022-08-19T01:22:56.634Z,13.43
2022-08-19T01:25:30.617Z,13.90
2022-08-19T01:28:06.470Z,14.40
2022-08-19T01:30:44.245Z,13.27
2022-08-19T01:33:14.457Z,14.67
2022-08-19T01:35:45.368Z,14.48
2022-08-19T01:38:25.393Z,14.23
2022-08-19T01:40:55.262Z,13.25
2022-08-19T01:43:25.077Z,13.38
2022-08-19T01:45:55.186Z,15.23
2022-08-19T01:48:25.123Z,14.60
2022-08-19T01:50:54.975Z,15.05
2022-08-19T01:53:30.521Z,15.60
2022-08-19T01:56:03.843Z,14.57
2022-08-19T01:58:37.843Z,14.85
2022-08-19T02:01:08.473Z,15.40
2022-08-19T02:03:38.685Z,14.85
2022-08-19T02:06:09.449Z,15.38
2022-08-19T02:08:43.590Z,17.08
2022-08-19T02:11:24.521Z,15.45
2022-08-19T02:13:54.364Z,15.90
2022-08-19T02:16:24.782Z,15.23
2022-08-19T02:18:55.693Z,16.85
2022-08-19T02:21:26.859Z,16.08
2022-08-19T02:23:59.683Z,15.82
2022-08-19T02:26:30.124Z,17.73
2022-08-19T02:29:01.300Z,15.98
2022-08-19T02:31:31.506Z,16.48
2022-08-19T02:34:01.773Z,17.55
2022-08-19T02:36:31.756Z,16.83
2022-08-19T02:39:01.603Z,16.67
2022-08-19T02:41:34.418Z,17.65
2022-08-19T02:44:29.566Z,17.38
2022-08-19T02:46:57.593Z,17.55
2022-08-19T02:49:27.455Z,17.38
2022-08-19T02:51:57.264Z,18.58
2022-08-19T02:54:29.734Z,19.08
2022-08-19T02:56:59.502Z,19.08
2022-08-19T02:59:29.371Z,18.00
2022-08-19T03:01:59.465Z,17.05
2022-08-19T03:04:30.608Z,17.85
2022-08-19T03:07:10.964Z,18.15
2022-08-19T03:09:43.882Z,18.00
2022-08-19T03:12:14.077Z,18.55
2022-08-19T03:14:43.957Z,19.90
2022-08-19T03:17:13.792Z,19.38
2022-08-19T03:19:44.122Z,19.40
2022-08-19T03:22:13.966Z,19.50
2022-08-19T03:24:46.783Z,19.58
2022-08-19T03:27:17.432Z,20.52
2022-08-19T03:29:47.485Z,21.38
2022-08-19T03:32:32.675Z,21.20
2022-08-19T03:35:03.525Z,20.37
2022-08-19T03:37:33.383Z,21.40
2022-08-19T03:40:06.763Z,21.00
2022-08-19T03:42:48.895Z,21.92
2022-08-19T03:45:19.554Z,21.48
2022-08-19T03:47:49.470Z,24.17
2022-08-19T03:50:20.157Z,21.00
2022-08-19T03:52:53.777Z,22.25
2022-08-19T03:55:26.344Z,22.70
2022-08-19T03:57:59.089Z,23.83
2022-08-19T04:00:29.232Z,21.17
2022-08-19T04:03:00.535Z,22.20
2022-08-19T04:05:32.101Z,23.38
2022-08-19T04:08:01.943Z,21.85
2022-08-19T04:10:34.415Z,22.70
2022-08-19T04:13:05.057Z,22.40
2022-08-19T04:15:40.411Z,23.67
2022-08-19T04:18:10.623Z,22.55
2022-08-19T04:20:49.704Z,22.67
2022-08-19T04:23:19.625Z,22.10
2022-08-19T04:25:52.476Z,22.52
2022-08-19T04:28:22.858Z,21.80
2022-08-19T04:30:59.546Z,22.33
2022-08-19T04:33:29.587Z,24.27
2022-08-19T04:35:59.757Z,22.02
2022-08-19T04:38:29.599Z,21.58
2022-08-19T04:41:14.488Z,23.05
2022-08-19T04:43:46.026Z,22.67
2022-08-19T04:46:39.261Z,21.48
2022-08-19T04:49:12.983Z,22.52
2022-08-19T04:51:45.692Z,22.33
2022-08-19T04:54:15.958Z,22.23
2022-08-19T04:57:07.069Z,23.13
2022-08-19T04:59:37.144Z,22.43
2022-08-19T05:02:07.616Z,23.33
2022-08-19T05:04:40.197Z,23.50
2022-08-19T05:07:10.865Z,22.40
2022-08-19T05:09:55.661Z,23.02
2022-08-19T05:12:31.318Z,22.48
2022-08-19T05:15:02.141Z,22.60
2022-08-19T05:17:36.296Z,21.58
2022-08-19T05:20:31.348Z,22.17
2022-08-19T05:23:01.327Z,22.77
2022-08-19T05:25:42.603Z,22.45
2022-08-19T05:28:16.816Z,22.02
2022-08-19T05:30:47.714Z,22.08
2022-08-19T05:33:17.816Z,23.70
2022-08-19T05:35:49.289Z,22.05
2022-08-19T05:38:19.600Z,23.13
2022-08-19T05:40:50.344Z,22.67
2022-08-19T05:43:22.761Z,23.02
2022-08-19T05:45:52.646Z,22.83
2022-08-19T05:48:22.901Z,22.13
2022-08-19T05:50:53.458Z,23.02
2022-08-19T05:53:23.332Z,21.80
2022-08-19T05:55:53.168Z,21.95
2022-08-19T05:58:28.056Z,22.60
2022-08-19T06:00:58.029Z,23.42
2022-08-19T06:03:28.236Z,23.08
2022-08-19T06:05:59.688Z,23.85
2022-08-19T06:08:33.722Z,24.00
2022-08-19T06:11:17.746Z,24.10
2022-08-19T06:13:59.712Z,24.00
2022-08-19T06:16:32.740Z,23.13
2022-08-19T06:19:04.521Z,24.45
2022-08-19T06:21:34.763Z,22.88
2022-08-19T06:24:04.696Z,23.83
2022-08-19T06:26:35.529Z,23.05
2022-08-19T06:29:09.118Z,23.25
2022-08-19T06:31:39.896Z,23.27
2022-08-19T06:34:09.956Z,22.98
2022-08-19T06:36:42.874Z,23.00
2022-08-19T06:39:14.794Z,22.75
2022-08-19T06:41:50.679Z,22.45
2022-08-19T06:44:27.515Z,21.50
2022-08-19T06:46:58.115Z,21.75
2022-08-19T06:49:31.951Z,21.63
2022-08-19T06:52:03.877Z,23.40
2022-08-19T06:54:37.722Z,23.25
2022-08-19T06:57:17.428Z,23.10
2022-08-19T06:59:49.918Z,21.05
2022-08-19T07:02:19.912Z,20.60
2022-08-19T07:04:52.626Z,21.35
2022-08-19T07:07:24.271Z,20.27
2022-08-19T07:09:58.575Z,21.48
2022-08-19T07:12:35.364Z,20.50
2022-08-19T07:15:10.882Z,20.33
2022-08-19T07:17:42.233Z,19.83
2022-08-19T07:20:13.731Z,21.27
2022-08-19T07:22:44.101Z,21.05
2022-08-19T07:25:14.251Z,20.67
2022-08-19T07:27:46.404Z,18.70
2022-08-19T07:30:21.171Z,20.33
2022-08-19T07:32:53.264Z,19.45
2022-08-19T07:35:23.139Z,19.67
2022-08-19T07:37:53.909Z,18.55
2022-08-19T07:40:24.417Z,18.90
2022-08-19T07:42:54.230Z,18.75
2022-08-19T07:45:27.642Z,18.40
2022-08-19T07:47:57.803Z,18.95
2022-08-19T07:50:27.756Z,18.30
2022-08-19T07:52:58.016Z,18.85
2022-08-19T07:55:41.364Z,18.52
2022-08-19T07:58:14.130Z,17.52
2022-08-19T08:00:48.687Z,17.15
2022-08-19T08:03:20.027Z,18.23
2022-08-19T08:06:02.867Z,17.77
2022-08-19T08:08:48.081Z,19.05
2022-08-19T08:11:21.082Z,20.20
2022-08-19T08:14:01.043Z,16.70
2022-08-19T08:16:39.483Z,17.45
2022-08-19T08:19:25.713Z,17.63
2022-08-19T08:21:57.636Z,16.55
2022-08-19T08:24:29.123Z,17.35
2022-08-19T08:26:59.872Z,23.30
2022-08-19T08:29:34.481Z,26.92
2022-08-19T08:32:13.969Z,17.88
2022-08-19T08:34:44.913Z,17.23
2022-08-19T08:37:17.443Z,16.05
2022-08-19T08:39:48.389Z,16.23
2022-08-19T08:42:22.983Z,16.55
2022-08-19T08:47:53.776Z,14.68
2022-08-19T08:50:29.655Z,15.75
2022-08-19T08:53:01.941Z,15.43
2022-08-19T08:55:36.831Z,15.88
2022-08-19T08:58:10.171Z,16.33
2022-08-19T09:00:44.238Z,16.60
2022-08-19T09:03:23.308Z,16.48
2022-08-19T09:06:03.666Z,15.07
2022-08-19T09:08:48.759Z,15.02
2022-08-19T09:11:42.984Z,16.05
2022-08-19T09:14:47.434Z,15.70
2022-08-19T09:17:13.729Z,15.52
2022-08-19T09:19:55.320Z,14.65
2022-08-19T09:22:27.692Z,13.25
2022-08-19T09:24:58.781Z,14.35
2022-08-19T09:27:41.731Z,14.48
2022-08-19T09:32:46.404Z,13.98
2022-08-19T09:35:19.129Z,13.80
2022-08-19T09:37:49.993Z,14.20
2022-08-19T09:40:30.381Z,13.20
2022-08-19T09:43:09.900Z,13.00
2022-08-19T09:45:40.124Z,12.93
2022-08-19T09:48:11.800Z,13.98
2022-08-19T09:50:52.346Z,13.38
2022-08-19T09:53:25.622Z,13.45
2022-08-19T09:55:55.751Z,14.00
2022-08-19T09:58:28.648Z,12.25
2022-08-19T10:00:59.369Z,13.13
2022-08-19T10:03:30.557Z,12.48
2022-08-19T10:06:05.439Z,12.57
2022-08-19T10:08:50.483Z,12.23
2022-08-19T10:11:28.435Z,11.82
2022-08-19T10:14:11.511Z,12.60
2022-08-19T10:16:42.612Z,13.23
2022-08-19T10:19:13.033Z,13.18
2022-08-19T10:21:46.304Z,12.40
2022-08-19T10:24:18.899Z,11.75
2022-08-19T10:26:57.214Z,12.20
2022-08-19T10:29:31.907Z,12.18
2022-08-19T10:32:03.919Z,10.25
2022-08-19T10:34:34.499Z,11.95
2022-08-19T10:37:10.733Z,10.18
2022-08-19T10:39:43.485Z,10.45
2022-08-19T10:42:14.689Z,9.02
2022-08-19T10:44:44.904Z,8.40
2022-08-19T10:47:17.610Z,8.55
2022-08-19T10:50:08.279Z,7.57
2022-08-19T10:52:49.445Z,7.43
2022-08-19T10:55:34.815Z,7.82
2022-08-19T10:58:04.844Z,7.97
2022-08-19T11:00:34.864Z,7.43
2022-08-19T11:03:04.682Z,7.93
2022-08-19T11:05:36.570Z,7.50
2022-08-19T11:08:21.221Z,8.20
2022-08-19T11:10:54.615Z,7.43
2022-08-19T11:13:25.631Z,8.25
2022-08-19T11:16:07.441Z,7.40
2022-08-19T11:18:39.997Z,7.43
2022-08-19T11:21:18.025Z,7.90
2022-08-19T11:23:52.543Z,8.00
2022-08-19T11:26:24.282Z,7.95
2022-08-19T11:28:55.521Z,8.10
2022-08-19T11:31:28.946Z,7.90
2022-08-19T11:34:00.847Z,7.70
2022-08-19T11:36:32.322Z,8.30
2022-08-19T11:39:06.258Z,7.55
2022-08-19T11:41:36.261Z,8.48
2022-08-19T11:44:07.679Z,8.30
2022-08-19T11:46:38.964Z,8.32
2022-08-19T11:49:13.779Z,7.70
2022-08-19T11:51:45.583Z,8.95
2022-08-19T11:54:19.690Z,8.00
2022-08-19T11:56:50.059Z,8.25
2022-08-19T11:59:19.969Z,8.68
2022-08-19T12:01:49.756Z,8.35
2022-08-19T12:04:19.640Z,7.70
2022-08-19T12:06:50.980Z,8.05
2022-08-19T12:09:23.412Z,8.38
2022-08-19T12:11:53.828Z,8.13
2022-08-19T12:14:24.089Z,8.18
2022-08-19T12:16:54.566Z,8.15
2022-08-19T12:19:25.590Z,7.60
2022-08-19T12:21:57.958Z,8.13
2022-08-19T12:24:30.589Z,8.02
2022-08-19T12:27:03.104Z,8.02
2022-08-19T12:29:34.736Z,7.82
2022-08-19T12:32:05.112Z,8.30
2022-08-19T12:34:38.120Z,7.53
2022-08-19T12:37:09.676Z,7.57
2022-08-19T12:39:45.176Z,6.97
2022-08-19T12:42:17.082Z,6.97
2022-08-19T12:44:47.614Z,6.80
2022-08-19T12:47:17.973Z,7.00
2022-08-19T12:49:55.207Z,7.35
2022-08-19T12:52:28.194Z,7.00
2022-08-19T12:55:01.499Z,7.65
2022-08-19T12:57:33.469Z,6.60
2022-08-19T13:00:07.812Z,6.28
2022-08-19T13:02:39.278Z,5.90
2022-08-19T13:05:12.412Z,6.25
2022-08-19T13:07:44.841Z,5.95
2022-08-19T13:10:21.452Z,6.18
2022-08-19T13:12:54.130Z,6.07
2022-08-19T13:15:26.088Z,5.88
2022-08-19T13:17:57.857Z,5.75
2022-08-19T13:20:28.828Z,6.47
2022-08-19T13:22:59.250Z,7.18
2022-08-19T13:25:31.650Z,5.80
2022-08-19T13:28:02.678Z,6.35
2022-08-19T13:30:44.993Z,6.28
2022-08-19T13:33:15.914Z,6.40
2022-08-19T13:35:48.767Z,6.20
2022-08-19T13:38:21.449Z,7.15
2022-08-19T13:40:56.189Z,7.07
2022-08-19T13:43:30.196Z,7.18
2022-08-19T13:46:01.001Z,7.93
2022-08-19T13:48:32.056Z,8.00
2022-08-19T13:51:02.067Z,9.50
2022-08-19T13:53:31.896Z,16.90
2022-08-19T13:56:04.424Z,10.57
2022-08-19T13:58:34.456Z,11.02
2022-08-19T14:01:04.374Z,13.40
2022-08-19T14:03:35.140Z,15.82
2022-08-19T14:06:05.393Z,16.02
2022-08-19T14:08:35.228Z,15.95
2022-08-19T14:11:07.741Z,19.08
2022-08-19T14:13:37.844Z,19.48
2022-08-19T14:16:12.195Z,19.02
2022-08-19T14:18:42.293Z,20.07
2022-08-19T14:21:19.088Z,20.77
2022-08-19T14:23:49.159Z,16.65
2022-08-19T14:26:22.895Z,17.50
2022-08-19T14:28:54.040Z,20.60
2022-08-19T14:31:28.994Z,18.73
2022-08-19T14:34:00.758Z,21.33
2022-08-19T14:36:31.407Z,22.05
2022-08-19T14:39:01.847Z,22.02
2022-08-19T14:41:34.786Z,21.45
2022-08-19T14:44:04.673Z,21.60
2022-08-19T14:46:34.556Z,20.13
2022-08-19T14:49:09.636Z,21.77
2022-08-19T14:51:39.874Z,17.77
2022-08-19T14:54:13.003Z,21.55
2022-08-19T14:56:45.568Z,18.73
2022-08-19T14:59:15.810Z,22.13
2022-08-19T15:01:45.782Z,20.83
2022-08-19T15:04:15.610Z,21.05
2022-08-19T15:06:45.566Z,21.98
2022-08-19T15:09:15.433Z,21.52
2022-08-19T15:11:48.097Z,23.20
2022-08-19T15:14:18.071Z,23.58
2022-08-19T15:16:47.921Z,21.90
2022-08-19T15:19:18.606Z,20.95
2022-08-19T15:21:48.514Z,17.05
2022-08-19T15:24:18.465Z,19.02
2022-08-19T15:26:50.927Z,19.55
2022-08-19T15:29:20.757Z,21.52
2022-08-19T15:31:56.081Z,22.25
2022-08-19T15:34:28.269Z,21.58
2022-08-19T15:36:59.095Z,21.80
2022-08-19T15:39:29.452Z,21.58
2022-08-19T15:42:04.087Z,21.17
2022-08-19T15:44:37.289Z,20.05
2022-08-19T15:47:07.411Z,20.90
2022-08-19T15:49:37.273Z,17.65
2022-08-19T15:52:07.986Z,19.63
2022-08-19T15:54:37.795Z,19.45
2022-08-19T15:57:22.831Z,18.52
2022-08-19T16:00:05.644Z,17.55
2022-08-19T16:02:48.286Z,17.80
2022-08-19T16:05:37.330Z,15.52
2022-08-19T16:08:09.830Z,18.35
2022-08-19T16:10:40.471Z,16.38
2022-08-19T16:13:13.321Z,19.15
2022-08-19T16:15:44.016Z,17.13
2022-08-19T16:18:13.861Z,17.77
2022-08-19T16:20:43.829Z,18.08
2022-08-19T16:23:14.177Z,16.55
2022-08-19T16:25:44.029Z,17.77
2022-08-19T16:28:16.477Z,19.75
2022-08-19T16:30:48.635Z,18.55
2022-08-19T16:33:22.987Z,18.67
2022-08-19T16:36:07.107Z,15.80
2022-08-19T16:38:38.032Z,17.02
2022-08-19T16:41:08.631Z,16.75
2022-08-19T16:43:41.078Z,16.08
2022-08-19T16:46:11.793Z,16.27
2022-08-19T16:48:46.305Z,16.67
2022-08-19T16:51:17.190Z,15.82
2022-08-19T16:53:47.824Z,17.13
2022-08-19T16:56:17.949Z,16.92
2022-08-19T16:58:50.626Z,18.63
2022-08-19T17:01:21.622Z,17.65
2022-08-19T17:03:53.022Z,18.17
2022-08-19T17:06:26.076Z,18.13
2022-08-19T17:08:58.837Z,18.05
2022-08-19T17:11:31.218Z,18.27
2022-08-19T17:14:04.420Z,22.45
2022-08-19T17:16:36.222Z,19.40
2022-08-19T17:19:09.038Z,19.23
2022-08-19T17:21:40.651Z,20.88
2022-08-19T17:24:11.081Z,20.90
2022-08-19T17:26:41.613Z,19.67
2022-08-19T17:29:14.208Z,18.25
2022-08-19T17:31:44.069Z,19.17
2022-08-19T17:34:13.861Z,19.30
2022-08-19T17:36:43.877Z,18.45
2022-08-19T17:39:14.010Z,17.88
2022-08-19T17:41:44.167Z,18.27
2022-08-19T17:44:19.294Z,17.08
2022-08-19T17:46:49.177Z,18.88
2022-08-19T17:49:19.891Z,18.95
2022-08-19T17:51:52.288Z,17.80
2022-08-19T17:54:22.837Z,19.33
2022-08-19T17:56:52.773Z,19.05
2022-08-19T17:59:27.939Z,18.48
2022-08-19T18:02:00.648Z,19.60
2022-08-19T18:04:30.787Z,19.48
2022-08-19T18:07:01.047Z,20.10
2022-08-19T18:09:41.807Z,18.80
2022-08-19T18:12:16.349Z,19.45
2022-08-19T18:14:48.813Z,19.45
2022-08-19T18:17:22.969Z,19.35
2022-08-19T18:22:29.543Z,20.17
2022-08-19T18:25:00.685Z,19.38
2022-08-19T18:27:30.953Z,19.17
2022-08-19T18:30:03.455Z,19.52
2022-08-19T18:32:35.112Z,20.02
2022-08-19T18:35:09.936Z,20.10
2022-08-19T18:37:40.012Z,20.17
2022-08-19T18:40:26.529Z,19.08
2022-08-19T18:43:17.495Z,20.40
2022-08-19T18:46:02.591Z,21.63
2022-08-19T18:48:45.139Z,20.58
2022-08-19T18:51:16.263Z,20.92
2022-08-19T18:53:47.941Z,20.80
2022-08-19T18:56:20.490Z,21.35
2022-08-19T18:58:50.416Z,20.20
2022-08-19T19:01:27.839Z,19.92
2022-08-19T19:04:01.211Z,22.15
2022-08-19T19:06:35.827Z,20.23
2022-08-19T19:09:06.214Z,20.20
2022-08-19T19:11:38.711Z,19.95
2022-08-19T19:14:23.221Z,19.70
2022-08-19T19:17:07.757Z,19.55
2022-08-19T19:19:42.610Z,19.88
2022-08-19T19:22:14.938Z,21.13
2022-08-19T19:24:46.513Z,18.45
2022-08-19T19:27:20.302Z,20.17
2022-08-19T19:29:52.310Z,24.50
2022-08-19T19:32:28.445Z,19.30
2022-08-19T19:34:59.573Z,19.77
2022-08-19T19:37:29.487Z,19.50
2022-08-19T19:39:59.479Z,18.20
2022-08-19T19:42:29.383Z,17.02
2022-08-19T19:45:01.458Z,17.52
2022-08-19T19:47:33.845Z,15.90
2022-08-19T19:50:14.244Z,15.10
2022-08-19T19:52:47.318Z,15.07
2022-08-19T19:55:20.763Z,16.17
2022-08-19T19:57:53.537Z,14.43
2022-08-19T20:00:25.320Z,14.70
2022-08-19T20:02:57.774Z,13.85
2022-08-19T20:05:28.513Z,13.57
2022-08-19T20:08:11.457Z,13.13
2022-08-19T20:10:42.250Z,13.63
2022-08-19T20:13:15.429Z,14.60
2022-08-19T20:15:46.373Z,13.55
2022-08-19T20:18:18.799Z,13.35
2022-08-19T20:20:50.916Z,13.27
2022-08-19T20:23:21.659Z,13.20
2022-08-19T20:25:52.619Z,12.30
2022-08-19T20:28:23.238Z,13.98
2022-08-19T20:30:53.307Z,12.43
2022-08-19T20:33:25.730Z,11.90
2022-08-19T20:35:55.823Z,12.18
2022-08-19T20:38:26.118Z,12.05
2022-08-19T20:40:55.970Z,11.50
2022-08-19T20:43:25.849Z,10.15
2022-08-19T20:45:56.584Z,10.70
2022-08-19T20:48:29.015Z,9.93
2022-08-19T20:50:59.030Z,9.65
2022-08-19T20:53:29.039Z,7.47
2022-08-19T20:55:59.937Z,6.60
2022-08-19T20:58:30.339Z,5.05
2022-08-19T21:01:02.889Z,5.13
2022-08-19T21:03:42.443Z,4.32
2022-08-19T21:06:14.379Z,4.50
2022-08-19T21:08:44.226Z,4.05
2022-08-19T21:11:15.171Z,4.00
2022-08-19T21:13:50.500Z,3.90
2022-08-19T21:16:20.380Z,3.88
2022-08-19T21:18:52.827Z,3.50
2022-08-19T21:21:22.666Z,3.35
2022-08-19T21:23:52.925Z,3.28
2022-08-19T21:26:22.736Z,3.15
2022-08-19T21:28:52.753Z,2.83
2022-08-19T21:31:22.742Z,2.53
2022-08-19T21:33:55.502Z,3.25
2022-08-19T21:36:25.325Z,2.58
2022-08-19T21:38:55.151Z,2.45
2022-08-19T21:41:25.031Z,2.60
2022-08-19T21:43:54.958Z,2.67
2022-08-19T21:46:25.121Z,2.42
2022-08-19T21:48:57.594Z,2.17
2022-08-19T21:51:27.461Z,1.92
2022-08-19T21:53:57.508Z,2.33
2022-08-19T21:56:27.381Z,1.73
2022-08-19T21:58:58.089Z,1.90
2022-08-19T22:01:28.048Z,1.88
2022-08-19T22:04:00.569Z,1.80
2022-08-19T22:06:30.489Z,2.33
2022-08-19T22:09:00.295Z,1.92
2022-08-19T22:11:30.921Z,2.08
2022-08-19T22:14:01.391Z,1.83
2022-08-19T22:16:34.195Z,2.00
2022-08-19T22:19:08.002Z,1.80
2022-08-19T22:21:40.060Z,1.63
2022-08-19T22:24:11.450Z,1.70
2022-08-19T22:26:41.315Z,1.83
2022-08-19T22:29:15.709Z,1.90
2022-08-19T22:31:54.328Z,1.80
2022-08-19T22:34:30.499Z,2.00
2022-08-19T22:37:00.313Z,1.88
2022-08-19T22:39:30.204Z,1.90
2022-08-19T22:42:00.000Z,1.60
2022-08-19T22:44:30.335Z,1.90
2022-08-19T22:47:00.138Z,1.90
2022-08-19T22:49:32.572Z,2.00
2022-08-19T22:52:18.138Z,1.80
2022-08-19T22:54:49.912Z,1.80
2022-08-19T22:57:20.915Z,1.60
2022-08-19T22:59:51.795Z,1.90
2022-08-19T23:02:23.327Z,1.75
2022-08-19T23:04:56.611Z,1.70
2022-08-19T23:07:26.573Z,2.50
2022-08-19T23:09:56.507Z,1.90
2022-08-19T23:12:31.360Z,1.48
2022-08-19T23:15:04.906Z,1.80
2022-08-19T23:17:35.289Z,2.30
2022-08-19T23:20:09.105Z,1.63
2022-08-19T23:22:41.705Z,1.50
2022-08-19T23:25:16.087Z,1.70
2022-08-19T23:27:58.520Z,1.58
2022-08-19T23:30:28.446Z,1.73
2022-08-19T23:33:00.913Z,1.50
2022-08-19T23:35:36.434Z,1.80
2022-08-19T23:38:07.938Z,1.58
2022-08-19T23:40:39.231Z,1.58
2022-08-19T23:43:10.327Z,1.73
2022-08-19T23:45:50.916Z,1.33
2022-08-19T23:48:21.515Z,1.17
2022-08-19T23:50:56.549Z,1.30
2022-08-19T23:53:26.925Z,1.10
2022-08-19T23:55:57.361Z,1.35
2022-08-19T23:58:27.781Z,1.60
